sensor_id;sensor_type;location;lat;lon;timestamp;temperature;humidity
6496;DHT22;3281;47.658;9.166;2023-02-28T00:01:14;1.70;1.00
6496;DHT22;3281;47.658;9.166;2023-02-28T00:03:42;1.70;1.00
6496;DHT22;3281;47.658;9.166;2023-02-28T00:06:09;1.70;1.00
6496;DHT22;3281;47.658;9.166;2023-02-28T00:08:36;1.60;1.00
6496;DHT22;3281;47.658;9.166;2023-02-28T00:11:04;1.60;1.00
6496;DHT22;3281;47.658;9.166;2023-02-28T00:13:32;1.60;1.00
6496;DHT22;3281;47.658;9.166;2023-02-28T00:16:01;1.70;1.00
6496;DHT22;3281;47.658;9.166;2023-02-28T00:18:28;1.70;1.00
6496;DHT22;3281;47.658;9.166;2023-02-28T00:20:57;1.70;1.00
6496;DHT22;3281;47.658;9.166;2023-02-28T00:23:24;1.60;1.00
6496;DHT22;3281;47.658;9.166;2023-02-28T00:25:51;1.60;1.00
6496;DHT22;3281;47.658;9.166;2023-02-28T00:28:18;1.60;1.00
6496;DHT22;3281;47.658;9.166;2023-02-28T00:30:45;1.70;1.00
6496;DHT22;3281;47.658;9.166;2023-02-28T00:33:12;1.60;1.00
6496;DHT22;3281;47.658;9.166;2023-02-28T00:35:39;1.70;1.00
6496;DHT22;3281;47.658;9.166;2023-02-28T00:38:07;1.80;1.00
6496;DHT22;3281;47.658;9.166;2023-02-28T00:40:34;1.70;1.00
6496;DHT22;3281;47.658;9.166;2023-02-28T00:43:00;1.80;1.00
6496;DHT22;3281;47.658;9.166;2023-02-28T00:45:28;1.90;1.00
6496;DHT22;3281;47.658;9.166;2023-02-28T00:47:55;2.00;1.00
6496;DHT22;3281;47.658;9.166;2023-02-28T00:50:21;1.80;1.00
6496;DHT22;3281;47.658;9.166;2023-02-28T00:52:48;1.70;1.00
6496;DHT22;3281;47.658;9.166;2023-02-28T00:55:16;1.70;1.00
6496;DHT22;3281;47.658;9.166;2023-02-28T00:57:44;1.60;1.00
6496;DHT22;3281;47.658;9.166;2023-02-28T01:00:11;1.60;1.00
6496;DHT22;3281;47.658;9.166;2023-02-28T01:02:38;1.60;1.00
6496;DHT22;3281;47.658;9.166;2023-02-28T01:05:06;1.70;1.00
6496;DHT22;3281;47.658;9.166;2023-02-28T01:07:32;1.60;1.00
6496;DHT22;3281;47.658;9.166;2023-02-28T01:09:59;1.60;1.00
6496;DHT22;3281;47.658;9.166;2023-02-28T01:12:27;1.70;1.00
6496;DHT22;3281;47.658;9.166;2023-02-28T01:14:54;1.70;1.00
6496;DHT22;3281;47.658;9.166;2023-02-28T01:17:21;2.00;1.00
6496;DHT22;3281;47.658;9.166;2023-02-28T01:19:47;1.80;1.00
6496;DHT22;3281;47.658;9.166;2023-02-28T01:22:14;1.80;1.00
6496;DHT22;3281;47.658;9.166;2023-02-28T01:24:41;1.80;1.00
6496;DHT22;3281;47.658;9.166;2023-02-28T01:27:07;2.00;1.00
6496;DHT22;3281;47.658;9.166;2023-02-28T01:29:35;1.90;1.00
6496;DHT22;3281;47.658;9.166;2023-02-28T01:32:02;1.70;1.00
6496;DHT22;3281;47.658;9.166;2023-02-28T01:34:29;1.90;1.00
6496;DHT22;3281;47.658;9.166;2023-02-28T01:36:56;1.70;1.00
6496;DHT22;3281;47.658;9.166;2023-02-28T01:39:24;1.90;1.00
6496;DHT22;3281;47.658;9.166;2023-02-28T01:41:51;1.90;1.00
6496;DHT22;3281;47.658;9.166;2023-02-28T01:44:58;2.00;1.00
6496;DHT22;3281;47.658;9.166;2023-02-28T01:47:27;1.90;1.00
6496;DHT22;3281;47.658;9.166;2023-02-28T01:49:54;1.70;1.00
6496;DHT22;3281;47.658;9.166;2023-02-28T01:52:22;1.70;1.00
6496;DHT22;3281;47.658;9.166;2023-02-28T01:54:52;1.70;1.00
6496;DHT22;3281;47.658;9.166;2023-02-28T01:57:22;1.90;1.00
6496;DHT22;3281;47.658;9.166;2023-02-28T01:59:52;1.80;1.00
6496;DHT22;3281;47.658;9.166;2023-02-28T02:02:23;1.80;1.00
6496;DHT22;3281;47.658;9.166;2023-02-28T02:04:54;1.80;1.00
6496;DHT22;3281;47.658;9.166;2023-02-28T02:07:21;1.80;1.00
6496;DHT22;3281;47.658;9.166;2023-02-28T02:09:49;2.00;1.00
6496;DHT22;3281;47.658;9.166;2023-02-28T02:12:27;1.80;1.00
6496;DHT22;3281;47.658;9.166;2023-02-28T02:15:02;1.70;1.00
6496;DHT22;3281;47.658;9.166;2023-02-28T02:17:40;1.70;1.00
6496;DHT22;3281;47.658;9.166;2023-02-28T02:23:51;1.80;1.00
6496;DHT22;3281;47.658;9.166;2023-02-28T02:26:47;2.00;1.00
6496;DHT22;3281;47.658;9.166;2023-02-28T02:29:40;1.70;1.00
6496;DHT22;3281;47.658;9.166;2023-02-28T02:32:35;1.90;1.00
6496;DHT22;3281;47.658;9.166;2023-02-28T02:35:12;1.80;1.00
6496;DHT22;3281;47.658;9.166;2023-02-28T02:37:43;1.80;1.00
6496;DHT22;3281;47.658;9.166;2023-02-28T02:40:14;1.70;1.00
6496;DHT22;3281;47.658;9.166;2023-02-28T02:42:47;1.80;1.00
6496;DHT22;3281;47.658;9.166;2023-02-28T02:45:19;1.80;1.00
6496;DHT22;3281;47.658;9.166;2023-02-28T02:47:49;1.80;1.00
6496;DHT22;3281;47.658;9.166;2023-02-28T02:50:22;1.70;1.00
6496;DHT22;3281;47.658;9.166;2023-02-28T02:52:53;1.70;1.00
6496;DHT22;3281;47.658;9.166;2023-02-28T02:55:22;1.70;1.00
6496;DHT22;3281;47.658;9.166;2023-02-28T02:57:52;1.60;1.00
6496;DHT22;3281;47.658;9.166;2023-02-28T03:00:24;1.60;1.00
6496;DHT22;3281;47.658;9.166;2023-02-28T03:02:54;1.50;1.00
6496;DHT22;3281;47.658;9.166;2023-02-28T03:05:26;1.50;1.00
6496;DHT22;3281;47.658;9.166;2023-02-28T03:07:53;1.50;1.00
6496;DHT22;3281;47.658;9.166;2023-02-28T03:10:33;1.50;1.00
6496;DHT22;3281;47.658;9.166;2023-02-28T03:16:10;1.50;1.00
6496;DHT22;3281;47.658;9.166;2023-02-28T03:18:45;1.40;1.00
6496;DHT22;3281;47.658;9.166;2023-02-28T03:21:23;1.50;1.00
6496;DHT22;3281;47.658;9.166;2023-02-28T03:23:57;1.60;1.00
6496;DHT22;3281;47.658;9.166;2023-02-28T03:26:27;1.50;1.00
6496;DHT22;3281;47.658;9.166;2023-02-28T03:29:00;1.40;1.00
6496;DHT22;3281;47.658;9.166;2023-02-28T03:31:32;1.50;1.00
6496;DHT22;3281;47.658;9.166;2023-02-28T03:34:03;1.50;1.00
6496;DHT22;3281;47.658;9.166;2023-02-28T03:36:35;1.60;1.00
6496;DHT22;3281;47.658;9.166;2023-02-28T03:39:10;1.80;1.00
6496;DHT22;3281;47.658;9.166;2023-02-28T03:41:41;1.70;1.00
6496;DHT22;3281;47.658;9.166;2023-02-28T03:44:14;1.60;1.00
6496;DHT22;3281;47.658;9.166;2023-02-28T03:46:46;1.60;1.00
6496;DHT22;3281;47.658;9.166;2023-02-28T03:49:17;1.50;1.00
6496;DHT22;3281;47.658;9.166;2023-02-28T03:51:47;1.50;1.00
6496;DHT22;3281;47.658;9.166;2023-02-28T03:54:19;1.50;1.00
6496;DHT22;3281;47.658;9.166;2023-02-28T03:56:51;1.70;1.00
6496;DHT22;3281;47.658;9.166;2023-02-28T03:59:23;1.80;1.00
6496;DHT22;3281;47.658;9.166;2023-02-28T04:01:52;1.60;1.00
6496;DHT22;3281;47.658;9.166;2023-02-28T04:04:20;1.70;1.00
6496;DHT22;3281;47.658;9.166;2023-02-28T04:06:51;1.70;1.00
6496;DHT22;3281;47.658;9.166;2023-02-28T04:09:19;1.50;1.00
6496;DHT22;3281;47.658;9.166;2023-02-28T04:11:48;1.50;1.00
6496;DHT22;3281;47.658;9.166;2023-02-28T04:14:17;1.80;1.00
6496;DHT22;3281;47.658;9.166;2023-02-28T04:16:44;1.70;1.00
6496;DHT22;3281;47.658;9.166;2023-02-28T04:19:12;1.60;1.00
6496;DHT22;3281;47.658;9.166;2023-02-28T04:21:41;1.70;1.00
6496;DHT22;3281;47.658;9.166;2023-02-28T04:24:11;1.80;1.00
6496;DHT22;3281;47.658;9.166;2023-02-28T04:26:42;1.60;1.00
6496;DHT22;3281;47.658;9.166;2023-02-28T04:29:09;1.90;1.00
6496;DHT22;3281;47.658;9.166;2023-02-28T04:31:36;1.70;1.00
6496;DHT22;3281;47.658;9.166;2023-02-28T04:34:03;1.80;1.00
6496;DHT22;3281;47.658;9.166;2023-02-28T04:36:30;1.90;1.00
6496;DHT22;3281;47.658;9.166;2023-02-28T04:38:57;1.90;1.00
6496;DHT22;3281;47.658;9.166;2023-02-28T04:41:25;1.70;1.00
6496;DHT22;3281;47.658;9.166;2023-02-28T04:43:52;1.70;1.00
6496;DHT22;3281;47.658;9.166;2023-02-28T04:46:19;1.70;1.00
6496;DHT22;3281;47.658;9.166;2023-02-28T04:48:46;1.80;1.00
6496;DHT22;3281;47.658;9.166;2023-02-28T04:51:15;1.80;1.00
6496;DHT22;3281;47.658;9.166;2023-02-28T04:53:42;1.60;1.00
6496;DHT22;3281;47.658;9.166;2023-02-28T04:56:12;1.70;1.00
6496;DHT22;3281;47.658;9.166;2023-02-28T04:58:40;1.70;1.00
6496;DHT22;3281;47.658;9.166;2023-02-28T05:01:17;1.70;1.00
6496;DHT22;3281;47.658;9.166;2023-02-28T05:03:44;1.80;1.00
6496;DHT22;3281;47.658;9.166;2023-02-28T05:06:12;1.60;1.00
6496;DHT22;3281;47.658;9.166;2023-02-28T05:08:39;1.60;1.00
6496;DHT22;3281;47.658;9.166;2023-02-28T05:11:07;1.60;1.00
6496;DHT22;3281;47.658;9.166;2023-02-28T05:13:37;1.60;1.00
6496;DHT22;3281;47.658;9.166;2023-02-28T05:16:06;1.50;1.00
6496;DHT22;3281;47.658;9.166;2023-02-28T05:18:33;1.50;1.00
6496;DHT22;3281;47.658;9.166;2023-02-28T05:21:00;1.50;1.00
6496;DHT22;3281;47.658;9.166;2023-02-28T05:23:27;1.50;1.00
6496;DHT22;3281;47.658;9.166;2023-02-28T05:25:54;1.50;1.00
6496;DHT22;3281;47.658;9.166;2023-02-28T05:28:21;1.60;1.00
6496;DHT22;3281;47.658;9.166;2023-02-28T05:30:48;1.60;1.00
6496;DHT22;3281;47.658;9.166;2023-02-28T05:33:16;1.60;1.00
6496;DHT22;3281;47.658;9.166;2023-02-28T05:35:42;1.90;1.00
6496;DHT22;3281;47.658;9.166;2023-02-28T05:38:09;1.70;1.00
6496;DHT22;3281;47.658;9.166;2023-02-28T05:40:38;1.60;1.00
6496;DHT22;3281;47.658;9.166;2023-02-28T05:43:05;1.80;1.00
6496;DHT22;3281;47.658;9.166;2023-02-28T05:45:32;1.70;1.00
6496;DHT22;3281;47.658;9.166;2023-02-28T05:47:58;1.60;1.00
6496;DHT22;3281;47.658;9.166;2023-02-28T05:50:27;1.60;1.00
6496;DHT22;3281;47.658;9.166;2023-02-28T05:52:53;1.70;1.00
6496;DHT22;3281;47.658;9.166;2023-02-28T05:55:20;1.60;1.00
6496;DHT22;3281;47.658;9.166;2023-02-28T05:57:47;1.50;1.00
6496;DHT22;3281;47.658;9.166;2023-02-28T06:00:14;1.80;1.00
6496;DHT22;3281;47.658;9.166;2023-02-28T06:02:43;1.80;1.00
6496;DHT22;3281;47.658;9.166;2023-02-28T06:05:13;1.80;1.00
6496;DHT22;3281;47.658;9.166;2023-02-28T06:07:42;1.70;1.00
6496;DHT22;3281;47.658;9.166;2023-02-28T06:10:09;1.70;1.00
6496;DHT22;3281;47.658;9.166;2023-02-28T06:12:37;1.80;1.00
6496;DHT22;3281;47.658;9.166;2023-02-28T06:15:04;1.60;1.00
6496;DHT22;3281;47.658;9.166;2023-02-28T06:17:31;1.60;1.00
6496;DHT22;3281;47.658;9.166;2023-02-28T06:19:58;1.80;1.00
6496;DHT22;3281;47.658;9.166;2023-02-28T06:22:24;1.80;1.00
6496;DHT22;3281;47.658;9.166;2023-02-28T06:24:53;1.70;1.00
6496;DHT22;3281;47.658;9.166;2023-02-28T06:27:20;1.60;1.00
6496;DHT22;3281;47.658;9.166;2023-02-28T06:29:47;1.50;1.00
6496;DHT22;3281;47.658;9.166;2023-02-28T06:32:14;1.50;1.00
6496;DHT22;3281;47.658;9.166;2023-02-28T06:34:40;1.50;1.00
6496;DHT22;3281;47.658;9.166;2023-02-28T06:37:07;1.60;1.00
6496;DHT22;3281;47.658;9.166;2023-02-28T06:39:34;1.50;1.00
6496;DHT22;3281;47.658;9.166;2023-02-28T06:42:03;1.50;1.00
6496;DHT22;3281;47.658;9.166;2023-02-28T06:44:29;1.50;1.00
6496;DHT22;3281;47.658;9.166;2023-02-28T06:47:00;1.80;1.00
6496;DHT22;3281;47.658;9.166;2023-02-28T06:49:28;1.70;1.00
6496;DHT22;3281;47.658;9.166;2023-02-28T06:51:55;1.60;1.00
6496;DHT22;3281;47.658;9.166;2023-02-28T06:54:21;1.60;1.00
6496;DHT22;3281;47.658;9.166;2023-02-28T06:56:48;1.70;1.00
6496;DHT22;3281;47.658;9.166;2023-02-28T06:59:16;1.90;1.00
6496;DHT22;3281;47.658;9.166;2023-02-28T07:01:43;1.90;1.00
6496;DHT22;3281;47.658;9.166;2023-02-28T07:04:10;1.70;1.00
6496;DHT22;3281;47.658;9.166;2023-02-28T07:06:38;1.60;1.00
6496;DHT22;3281;47.658;9.166;2023-02-28T07:09:05;1.80;1.00
6496;DHT22;3281;47.658;9.166;2023-02-28T07:11:32;1.70;1.00
6496;DHT22;3281;47.658;9.166;2023-02-28T07:13:59;1.70;1.00
6496;DHT22;3281;47.658;9.166;2023-02-28T07:16:27;1.70;1.00
6496;DHT22;3281;47.658;9.166;2023-02-28T07:18:53;1.50;1.00
6496;DHT22;3281;47.658;9.166;2023-02-28T07:21:20;1.50;1.00
6496;DHT22;3281;47.658;9.166;2023-02-28T07:23:47;1.60;1.00
6496;DHT22;3281;47.658;9.166;2023-02-28T07:26:15;1.70;1.00
6496;DHT22;3281;47.658;9.166;2023-02-28T07:28:44;1.60;1.00
6496;DHT22;3281;47.658;9.166;2023-02-28T07:31:12;1.70;1.00
6496;DHT22;3281;47.658;9.166;2023-02-28T07:33:41;1.70;1.00
6496;DHT22;3281;47.658;9.166;2023-02-28T07:36:10;1.80;1.00
6496;DHT22;3281;47.658;9.166;2023-02-28T07:38:41;1.90;1.00
6496;DHT22;3281;47.658;9.166;2023-02-28T07:41:07;2.00;1.00
6496;DHT22;3281;47.658;9.166;2023-02-28T07:43:35;1.90;1.00
6496;DHT22;3281;47.658;9.166;2023-02-28T07:46:03;1.90;1.00
6496;DHT22;3281;47.658;9.166;2023-02-28T07:48:31;1.70;1.00
6496;DHT22;3281;47.658;9.166;2023-02-28T07:50:59;1.70;1.00
6496;DHT22;3281;47.658;9.166;2023-02-28T07:53:27;1.80;1.00
6496;DHT22;3281;47.658;9.166;2023-02-28T07:55:55;1.90;1.00
6496;DHT22;3281;47.658;9.166;2023-02-28T07:58:22;1.80;1.00
6496;DHT22;3281;47.658;9.166;2023-02-28T08:00:49;1.90;1.00
6496;DHT22;3281;47.658;9.166;2023-02-28T08:03:17;1.90;1.00
6496;DHT22;3281;47.658;9.166;2023-02-28T08:05:44;1.90;1.00
6496;DHT22;3281;47.658;9.166;2023-02-28T08:08:12;1.80;1.00
6496;DHT22;3281;47.658;9.166;2023-02-28T08:10:39;1.90;1.00
6496;DHT22;3281;47.658;9.166;2023-02-28T08:13:06;1.90;1.00
6496;DHT22;3281;47.658;9.166;2023-02-28T08:15:33;1.90;1.00
6496;DHT22;3281;47.658;9.166;2023-02-28T08:18:00;1.90;1.00
6496;DHT22;3281;47.658;9.166;2023-02-28T08:20:27;1.90;1.00
6496;DHT22;3281;47.658;9.166;2023-02-28T08:22:54;1.90;1.00
6496;DHT22;3281;47.658;9.166;2023-02-28T08:25:22;2.10;1.00
6496;DHT22;3281;47.658;9.166;2023-02-28T08:27:50;2.00;1.00
6496;DHT22;3281;47.658;9.166;2023-02-28T08:30:17;2.00;1.00
6496;DHT22;3281;47.658;9.166;2023-02-28T08:32:44;2.00;1.00
6496;DHT22;3281;47.658;9.166;2023-02-28T08:35:11;2.00;1.00
6496;DHT22;3281;47.658;9.166;2023-02-28T08:37:38;2.10;1.00
6496;DHT22;3281;47.658;9.166;2023-02-28T08:40:07;2.00;1.00
6496;DHT22;3281;47.658;9.166;2023-02-28T08:42:35;2.00;1.00
6496;DHT22;3281;47.658;9.166;2023-02-28T08:45:02;1.90;1.00
6496;DHT22;3281;47.658;9.166;2023-02-28T08:47:29;1.90;1.00
6496;DHT22;3281;47.658;9.166;2023-02-28T08:49:56;2.10;1.00
6496;DHT22;3281;47.658;9.166;2023-02-28T08:52:23;2.10;1.00
6496;DHT22;3281;47.658;9.166;2023-02-28T08:54:49;2.00;1.00
6496;DHT22;3281;47.658;9.166;2023-02-28T08:57:16;2.10;1.00
6496;DHT22;3281;47.658;9.166;2023-02-28T08:59:44;2.20;1.00
6496;DHT22;3281;47.658;9.166;2023-02-28T09:02:12;2.10;1.00
6496;DHT22;3281;47.658;9.166;2023-02-28T09:04:39;2.20;1.00
6496;DHT22;3281;47.658;9.166;2023-02-28T09:07:06;2.10;1.00
6496;DHT22;3281;47.658;9.166;2023-02-28T09:09:33;2.20;1.00
6496;DHT22;3281;47.658;9.166;2023-02-28T09:12:00;2.30;1.00
6496;DHT22;3281;47.658;9.166;2023-02-28T09:14:27;2.30;1.00
6496;DHT22;3281;47.658;9.166;2023-02-28T09:16:55;2.50;1.00
6496;DHT22;3281;47.658;9.166;2023-02-28T09:19:22;2.50;1.00
6496;DHT22;3281;47.658;9.166;2023-02-28T09:21:49;2.30;1.00
6496;DHT22;3281;47.658;9.166;2023-02-28T09:24:17;2.30;1.00
6496;DHT22;3281;47.658;9.166;2023-02-28T09:26:45;2.20;1.00
6496;DHT22;3281;47.658;9.166;2023-02-28T09:29:12;2.20;1.00
6496;DHT22;3281;47.658;9.166;2023-02-28T09:31:39;2.40;1.00
6496;DHT22;3281;47.658;9.166;2023-02-28T09:34:08;2.50;1.00
6496;DHT22;3281;47.658;9.166;2023-02-28T09:36:35;2.30;1.00
6496;DHT22;3281;47.658;9.166;2023-02-28T09:39:03;2.40;1.00
6496;DHT22;3281;47.658;9.166;2023-02-28T09:41:36;2.50;1.00
6496;DHT22;3281;47.658;9.166;2023-02-28T09:44:06;2.50;1.00
6496;DHT22;3281;47.658;9.166;2023-02-28T09:46:37;2.40;1.00
6496;DHT22;3281;47.658;9.166;2023-02-28T09:49:11;2.50;1.00
6496;DHT22;3281;47.658;9.166;2023-02-28T09:51:46;2.50;1.00
6496;DHT22;3281;47.658;9.166;2023-02-28T09:54:18;2.70;1.00
6496;DHT22;3281;47.658;9.166;2023-02-28T09:56:49;2.80;1.00
6496;DHT22;3281;47.658;9.166;2023-02-28T09:59:37;2.70;1.00
6496;DHT22;3281;47.658;9.166;2023-02-28T10:02:23;2.80;1.00
6496;DHT22;3281;47.658;9.166;2023-02-28T10:04:58;2.90;1.00
6496;DHT22;3281;47.658;9.166;2023-02-28T10:07:45;2.90;1.00
6496;DHT22;3281;47.658;9.166;2023-02-28T10:10:21;2.80;1.00
6496;DHT22;3281;47.658;9.166;2023-02-28T10:12:53;2.80;1.00
6496;DHT22;3281;47.658;9.166;2023-02-28T10:15:23;2.70;1.00
6496;DHT22;3281;47.658;9.166;2023-02-28T10:17:54;2.70;1.00
6496;DHT22;3281;47.658;9.166;2023-02-28T10:20:25;2.60;1.00
6496;DHT22;3281;47.658;9.166;2023-02-28T10:22:58;2.70;1.00
6496;DHT22;3281;47.658;9.166;2023-02-28T10:25:29;3.00;1.00
6496;DHT22;3281;47.658;9.166;2023-02-28T10:27:58;3.10;1.00
6496;DHT22;3281;47.658;9.166;2023-02-28T10:30:27;3.20;1.00
6496;DHT22;3281;47.658;9.166;2023-02-28T10:32:54;3.10;1.00
6496;DHT22;3281;47.658;9.166;2023-02-28T10:35:24;3.00;1.00
6496;DHT22;3281;47.658;9.166;2023-02-28T10:37:55;3.00;1.00
6496;DHT22;3281;47.658;9.166;2023-02-28T10:40:29;3.10;1.00
6496;DHT22;3281;47.658;9.166;2023-02-28T10:42:58;3.10;1.00
6496;DHT22;3281;47.658;9.166;2023-02-28T10:45:26;3.20;1.00
6496;DHT22;3281;47.658;9.166;2023-02-28T10:47:56;3.50;1.00
6496;DHT22;3281;47.658;9.166;2023-02-28T10:50:32;3.80;1.00
6496;DHT22;3281;47.658;9.166;2023-02-28T10:53:13;3.60;1.00
6496;DHT22;3281;47.658;9.166;2023-02-28T10:55:41;3.40;1.00
6496;DHT22;3281;47.658;9.166;2023-02-28T10:58:21;3.30;1.00
6496;DHT22;3281;47.658;9.166;2023-02-28T11:00:48;3.50;1.00
6496;DHT22;3281;47.658;9.166;2023-02-28T11:03:24;3.50;1.00
6496;DHT22;3281;47.658;9.166;2023-02-28T11:05:52;3.50;1.00
6496;DHT22;3281;47.658;9.166;2023-02-28T11:08:19;3.60;1.00
6496;DHT22;3281;47.658;9.166;2023-02-28T11:10:47;3.40;1.00
6496;DHT22;3281;47.658;9.166;2023-02-28T11:13:17;3.40;1.00
6496;DHT22;3281;47.658;9.166;2023-02-28T11:15:51;3.40;1.00
6496;DHT22;3281;47.658;9.166;2023-02-28T11:18:23;3.40;1.00
6496;DHT22;3281;47.658;9.166;2023-02-28T11:20:55;3.50;1.00
6496;DHT22;3281;47.658;9.166;2023-02-28T11:23:25;3.50;1.00
6496;DHT22;3281;47.658;9.166;2023-02-28T11:25:55;3.40;1.00
6496;DHT22;3281;47.658;9.166;2023-02-28T11:28:26;3.20;1.00
6496;DHT22;3281;47.658;9.166;2023-02-28T11:31:05;3.30;1.00
6496;DHT22;3281;47.658;9.166;2023-02-28T11:33:40;3.50;1.00
6496;DHT22;3281;47.658;9.166;2023-02-28T11:36:12;3.30;1.00
6496;DHT22;3281;47.658;9.166;2023-02-28T11:38:40;3.50;1.00
6496;DHT22;3281;47.658;9.166;2023-02-28T11:41:22;3.50;1.00
6496;DHT22;3281;47.658;9.166;2023-02-28T11:44:04;3.50;1.00
6496;DHT22;3281;47.658;9.166;2023-02-28T11:46:38;3.40;1.00
6496;DHT22;3281;47.658;9.166;2023-02-28T11:49:18;3.60;1.00
6496;DHT22;3281;47.658;9.166;2023-02-28T11:51:52;3.50;1.00
6496;DHT22;3281;47.658;9.166;2023-02-28T11:54:33;3.30;1.00
6496;DHT22;3281;47.658;9.166;2023-02-28T11:57:14;3.30;1.00
6496;DHT22;3281;47.658;9.166;2023-02-28T11:59:52;3.40;1.00
6496;DHT22;3281;47.658;9.166;2023-02-28T12:02:24;3.50;1.00
6496;DHT22;3281;47.658;9.166;2023-02-28T12:07:45;3.50;1.00
6496;DHT22;3281;47.658;9.166;2023-02-28T12:10:20;3.40;1.00
6496;DHT22;3281;47.658;9.166;2023-02-28T12:13:01;3.40;1.00
6496;DHT22;3281;47.658;9.166;2023-02-28T12:15:52;3.70;1.00
6496;DHT22;3281;47.658;9.166;2023-02-28T12:18:34;3.60;1.00
6496;DHT22;3281;47.658;9.166;2023-02-28T12:21:07;3.70;1.00
6496;DHT22;3281;47.658;9.166;2023-02-28T12:23:57;3.80;1.00
6496;DHT22;3281;47.658;9.166;2023-02-28T12:26:32;3.80;1.00
6496;DHT22;3281;47.658;9.166;2023-02-28T12:29:07;3.70;1.00
6496;DHT22;3281;47.658;9.166;2023-02-28T12:31:38;3.60;1.00
6496;DHT22;3281;47.658;9.166;2023-02-28T12:34:09;3.90;1.00
6496;DHT22;3281;47.658;9.166;2023-02-28T12:36:37;4.00;1.00
6496;DHT22;3281;47.658;9.166;2023-02-28T12:39:10;4.00;1.00
6496;DHT22;3281;47.658;9.166;2023-02-28T12:41:42;4.20;1.00
6496;DHT22;3281;47.658;9.166;2023-02-28T12:44:13;4.00;1.00
6496;DHT22;3281;47.658;9.166;2023-02-28T12:46:45;4.00;1.00
6496;DHT22;3281;47.658;9.166;2023-02-28T12:49:17;4.10;1.00
6496;DHT22;3281;47.658;9.166;2023-02-28T12:51:46;4.10;1.00
6496;DHT22;3281;47.658;9.166;2023-02-28T12:54:20;3.80;1.00
6496;DHT22;3281;47.658;9.166;2023-02-28T12:56:53;3.90;1.00
6496;DHT22;3281;47.658;9.166;2023-02-28T12:59:25;4.10;1.00
6496;DHT22;3281;47.658;9.166;2023-02-28T13:02:25;4.10;1.00
6496;DHT22;3281;47.658;9.166;2023-02-28T13:05:13;4.00;1.00
6496;DHT22;3281;47.658;9.166;2023-02-28T13:08:08;3.80;1.00
6496;DHT22;3281;47.658;9.166;2023-02-28T13:10:41;3.90;1.00
6496;DHT22;3281;47.658;9.166;2023-02-28T13:13:14;3.90;1.00
6496;DHT22;3281;47.658;9.166;2023-02-28T13:16:00;4.00;1.00
6496;DHT22;3281;47.658;9.166;2023-02-28T13:18:31;4.20;1.00
6496;DHT22;3281;47.658;9.166;2023-02-28T13:21:00;3.90;1.00
6496;DHT22;3281;47.658;9.166;2023-02-28T13:29:34;4.10;1.00
6496;DHT22;3281;47.658;9.166;2023-02-28T13:32:32;4.30;1.00
6496;DHT22;3281;47.658;9.166;2023-02-28T13:40:54;4.00;1.00
6496;DHT22;3281;47.658;9.166;2023-02-28T13:44:03;4.10;1.00
6496;DHT22;3281;47.658;9.166;2023-02-28T13:46:32;4.30;1.00
6496;DHT22;3281;47.658;9.166;2023-02-28T13:49:24;4.20;1.00
6496;DHT22;3281;47.658;9.166;2023-02-28T13:51:52;4.10;1.00
6496;DHT22;3281;47.658;9.166;2023-02-28T13:54:34;3.80;1.00
6496;DHT22;3281;47.658;9.166;2023-02-28T13:57:19;3.80;1.00
6496;DHT22;3281;47.658;9.166;2023-02-28T14:00:00;3.80;1.00
6496;DHT22;3281;47.658;9.166;2023-02-28T14:02:45;4.00;1.00
6496;DHT22;3281;47.658;9.166;2023-02-28T14:05:17;3.90;1.00
6496;DHT22;3281;47.658;9.166;2023-02-28T14:07:46;4.00;1.00
6496;DHT22;3281;47.658;9.166;2023-02-28T14:10:27;4.10;1.00
6496;DHT22;3281;47.658;9.166;2023-02-28T14:12:57;4.10;1.00
6496;DHT22;3281;47.658;9.166;2023-02-28T14:15:45;3.90;1.00
6496;DHT22;3281;47.658;9.166;2023-02-28T14:18:25;3.90;1.00
6496;DHT22;3281;47.658;9.166;2023-02-28T14:20:56;3.90;1.00
6496;DHT22;3281;47.658;9.166;2023-02-28T14:23:36;3.90;1.00
6496;DHT22;3281;47.658;9.166;2023-02-28T14:26:18;4.10;1.00
6496;DHT22;3281;47.658;9.166;2023-02-28T14:28:55;4.10;1.00
6496;DHT22;3281;47.658;9.166;2023-02-28T14:31:31;3.90;1.00
6496;DHT22;3281;47.658;9.166;2023-02-28T14:34:13;3.90;1.00
6496;DHT22;3281;47.658;9.166;2023-02-28T14:36:44;3.70;1.00
6496;DHT22;3281;47.658;9.166;2023-02-28T14:39:13;3.60;1.00
6496;DHT22;3281;47.658;9.166;2023-02-28T14:41:42;3.60;1.00
6496;DHT22;3281;47.658;9.166;2023-02-28T14:44:16;3.80;1.00
6496;DHT22;3281;47.658;9.166;2023-02-28T14:46:48;3.70;1.00
6496;DHT22;3281;47.658;9.166;2023-02-28T14:49:19;3.70;1.00
6496;DHT22;3281;47.658;9.166;2023-02-28T14:51:48;3.70;1.00
6496;DHT22;3281;47.658;9.166;2023-02-28T14:54:16;3.80;1.00
6496;DHT22;3281;47.658;9.166;2023-02-28T14:56:49;3.60;1.00
6496;DHT22;3281;47.658;9.166;2023-02-28T14:59:26;3.50;1.00
6496;DHT22;3281;47.658;9.166;2023-02-28T15:02:22;3.60;1.00
6496;DHT22;3281;47.658;9.166;2023-02-28T15:04:53;3.60;1.00
6496;DHT22;3281;47.658;9.166;2023-02-28T15:07:23;3.40;1.00
6496;DHT22;3281;47.658;9.166;2023-02-28T15:10:17;3.50;1.00
6496;DHT22;3281;47.658;9.166;2023-02-28T15:12:52;3.50;1.00
6496;DHT22;3281;47.658;9.166;2023-02-28T15:15:23;3.50;1.00
6496;DHT22;3281;47.658;9.166;2023-02-28T15:17:56;3.40;1.00
6496;DHT22;3281;47.658;9.166;2023-02-28T15:20:25;3.60;1.00
6496;DHT22;3281;47.658;9.166;2023-02-28T15:22:55;3.40;1.00
6496;DHT22;3281;47.658;9.166;2023-02-28T15:25:23;3.50;1.00
6496;DHT22;3281;47.658;9.166;2023-02-28T15:27:55;3.50;1.00
6496;DHT22;3281;47.658;9.166;2023-02-28T15:30:25;3.50;1.00
6496;DHT22;3281;47.658;9.166;2023-02-28T15:33:18;3.70;1.00
6496;DHT22;3281;47.658;9.166;2023-02-28T15:35:45;3.60;1.00
6496;DHT22;3281;47.658;9.166;2023-02-28T15:38:16;3.80;1.00
6496;DHT22;3281;47.658;9.166;2023-02-28T15:40:45;3.70;1.00
6496;DHT22;3281;47.658;9.166;2023-02-28T15:43:23;3.60;1.00
6496;DHT22;3281;47.658;9.166;2023-02-28T15:45:51;3.70;1.00
6496;DHT22;3281;47.658;9.166;2023-02-28T15:48:22;3.90;1.00
6496;DHT22;3281;47.658;9.166;2023-02-28T15:50:51;4.00;1.00
6496;DHT22;3281;47.658;9.166;2023-02-28T15:53:22;4.00;1.00
6496;DHT22;3281;47.658;9.166;2023-02-28T15:56:00;3.90;1.00
6496;DHT22;3281;47.658;9.166;2023-02-28T15:58:27;3.90;1.00
6496;DHT22;3281;47.658;9.166;2023-02-28T16:01:07;3.70;1.00
6496;DHT22;3281;47.658;9.166;2023-02-28T16:03:40;3.70;1.00
6496;DHT22;3281;47.658;9.166;2023-02-28T16:06:09;3.80;1.00
6496;DHT22;3281;47.658;9.166;2023-02-28T16:08:38;3.70;1.00
6496;DHT22;3281;47.658;9.166;2023-02-28T16:11:08;3.60;1.00
6496;DHT22;3281;47.658;9.166;2023-02-28T16:13:35;3.60;1.00
6496;DHT22;3281;47.658;9.166;2023-02-28T16:16:02;3.60;1.00
6496;DHT22;3281;47.658;9.166;2023-02-28T16:18:30;3.60;1.00
6496;DHT22;3281;47.658;9.166;2023-02-28T16:20:58;3.50;1.00
6496;DHT22;3281;47.658;9.166;2023-02-28T16:23:24;3.30;1.00
6496;DHT22;3281;47.658;9.166;2023-02-28T16:25:51;3.30;1.00
6496;DHT22;3281;47.658;9.166;2023-02-28T16:28:21;3.20;1.00
6496;DHT22;3281;47.658;9.166;2023-02-28T16:30:51;3.30;1.00
6496;DHT22;3281;47.658;9.166;2023-02-28T16:33:18;3.20;1.00
6496;DHT22;3281;47.658;9.166;2023-02-28T16:35:45;3.00;1.00
6496;DHT22;3281;47.658;9.166;2023-02-28T16:38:13;3.10;1.00
6496;DHT22;3281;47.658;9.166;2023-02-28T16:40:41;3.20;1.00
6496;DHT22;3281;47.658;9.166;2023-02-28T16:43:14;3.00;1.00
6496;DHT22;3281;47.658;9.166;2023-02-28T16:45:41;3.00;1.00
6496;DHT22;3281;47.658;9.166;2023-02-28T16:48:12;3.00;1.00
6496;DHT22;3281;47.658;9.166;2023-02-28T16:50:39;3.10;1.00
6496;DHT22;3281;47.658;9.166;2023-02-28T16:53:06;2.90;1.00
6496;DHT22;3281;47.658;9.166;2023-02-28T16:55:34;3.00;1.00
6496;DHT22;3281;47.658;9.166;2023-02-28T16:58:02;2.90;1.00
6496;DHT22;3281;47.658;9.166;2023-02-28T17:00:30;2.80;1.00
6496;DHT22;3281;47.658;9.166;2023-02-28T17:02:58;2.70;1.00
6496;DHT22;3281;47.658;9.166;2023-02-28T17:05:26;2.80;1.00
6496;DHT22;3281;47.658;9.166;2023-02-28T17:07:54;2.80;1.00
6496;DHT22;3281;47.658;9.166;2023-02-28T17:10:22;2.80;1.00
6496;DHT22;3281;47.658;9.166;2023-02-28T17:12:51;2.70;1.00
6496;DHT22;3281;47.658;9.166;2023-02-28T17:15:18;2.60;1.00
6496;DHT22;3281;47.658;9.166;2023-02-28T17:17:47;2.60;1.00
6496;DHT22;3281;47.658;9.166;2023-02-28T17:20:15;2.60;1.00